Brevik Bridge — VRHY7 — position and weather

sailwx.info

Track history (hours):
 
Tides and Currents Weather Stations Pressure Air Temp Water Temp Dewpoint Dewpoint Depression Visibility Wind Speed Wind Dir Waves Ship Positions

Brevik Bridge

Last reported at 2015-Mar-06 10:20 UTC. Time now 2015-Mar-06 11:08 UTC.
Position N 24°26' E 118°03'.

Length 268 m; draft 10.1 m.

Type: Cargo ship. MMSI: 477866200.

Date/timePositionNaut miles runAvg speedWind from/ knotsBaromVisibWave heightAir tempDewpointWater temp
2015-Mar-06 10:20N 24°26' E 118°03'911.0
2015-Mar-06 09:33N 24°20' E 118°11'1110.3
2015-Mar-06 08:29N 24°12' E 118°18'1110.9
2015-Mar-06 07:28N 24°02' E 118°24'9311.7
2015-Mar-05 23:33N 23°00' E 119°39'1312.2
2015-Mar-05 22:28N 22°54' E 119°52'1213.0
2015-Mar-05 21:33N 22°46' E 120°02'9 8.8
2015-Mar-05 20:33N 22°40' E 120°09'4 4.5
2015-Mar-05 19:33N 22°37' E 120°12'7 7.3
2015-Mar-05 18:32N 22°33' E 120°19'0 0.0
2015-Mar-05 17:32N 22°33' E 120°19'0 0.0
2015-Mar-05 16:32N 22°33' E 120°19'0 0.0
2015-Mar-05 15:32N 22°33' E 120°19'0 0.0
2015-Mar-05 14:32N 22°33' E 120°19'0 0.0
2015-Mar-05 13:32N 22°33' E 120°19'0 0.0
2015-Mar-05 12:32N 22°33' E 120°19'0 0.0
2015-Mar-05 11:32N 22°33' E 120°19'0 0.0
2015-Mar-05 10:32N 22°33' E 120°19'0 0.0
2015-Mar-05 09:32N 22°33' E 120°19'0 0.0
2015-Mar-05 08:32N 22°33' E 120°19'0 0.0
2015-Mar-05 07:32N 22°33' E 120°19'0 0.0
2015-Mar-05 06:32N 22°33' E 120°19'0 0.0
2015-Mar-05 05:32N 22°33' E 120°19'0 0.0
2015-Mar-05 04:32N 22°33' E 120°19'0 0.0
2015-Mar-05 03:32N 22°33' E 120°19'0 0.0
2015-Mar-05 02:32N 22°33' E 120°19'3 2.7
2015-Mar-05 01:33N 22°33' E 120°16'1 1.3
2015-Mar-05 00:33N 22°31' E 120°17'0 0.0
2015-Mar-04 23:30N 22°31' E 120°17'0 0.1
2015-Mar-04 22:30N 22°32' E 120°17'0 0.0
2015-Mar-04 21:24N 22°32' E 120°17'0 0.2
2015-Mar-04 20:30N 22°32' E 120°17'0 0.1
2015-Mar-04 19:30N 22°31' E 120°17'0 0.2
2015-Mar-04 18:30N 22°31' E 120°17'0 0.0
2015-Mar-04 17:30N 22°31' E 120°17'0 0.0
2015-Mar-04 16:30N 22°31' E 120°17'0 0.1
2015-Mar-04 15:30N 22°31' E 120°17'0 0.1
2015-Mar-04 14:30N 22°31' E 120°17'0 0.0
2015-Mar-04 13:30N 22°31' E 120°17'0 0.1
2015-Mar-04 12:30N 22°31' E 120°17'0 0.1
2015-Mar-04 11:30N 22°31' E 120°17'0 0.0
2015-Mar-04 10:24N 22°31' E 120°17'0 0.1
2015-Mar-04 09:30N 22°31' E 120°17'0 0.0
2015-Mar-04 08:30N 22°31' E 120°17'0 0.0
2015-Mar-04 07:24N 22°31' E 120°17'0 0.0
2015-Mar-04 06:30N 22°31' E 120°17'0 0.0
2015-Mar-04 05:30N 22°31' E 120°17'0 0.0
2015-Mar-04 04:18N 22°31' E 120°17'0 0.0
2015-Mar-04 03:30N 22°31' E 120°17'0 0.0
2015-Mar-04 02:30N 22°31' E 120°17'0 0.0
2015-Mar-04 01:30N 22°31' E 120°17'0 0.1
2015-Mar-04 00:30N 22°31' E 120°17'0 0.0
2015-Mar-03 23:30N 22°31' E 120°17'0 0.0
2015-Mar-03 22:24N 22°31' E 120°17'0 0.1
2015-Mar-03 21:30N 22°31' E 120°17'0 0.1
2015-Mar-03 20:30N 22°31' E 120°17'0 0.0
2015-Mar-03 19:30N 22°31' E 120°17'0 0.1
2015-Mar-03 18:30N 22°31' E 120°17'0 0.0
2015-Mar-03 17:30N 22°31' E 120°17'0 0.1
2015-Mar-03 16:30N 22°31' E 120°17'0 0.1
2015-Mar-03 15:24N 22°31' E 120°17'0 0.0
2015-Mar-03 14:30N 22°31' E 120°17'0 0.0
2015-Mar-03 13:18N 22°31' E 120°17'0 0.1
2015-Mar-03 12:30N 22°32' E 120°17'0 0.1
2015-Mar-03 11:24N 22°32' E 120°17'0 0.0
2015-Mar-03 10:30N 22°32' E 120°17'0 0.0
2015-Mar-03 09:30N 22°32' E 120°17'0 0.1
2015-Mar-03 08:18N 22°32' E 120°17'0 0.1
2015-Mar-03 07:30N 22°32' E 120°17'0 0.0
2015-Mar-03 06:24N 22°32' E 120°17'0 0.1
2015-Mar-03 05:30N 22°32' E 120°17'0 0.1
2015-Mar-03 04:12N 22°32' E 120°17'0 0.0
2015-Mar-03 03:24N 22°32' E 120°17'0 0.1
2015-Mar-03 02:30N 22°32' E 120°17'0 0.1
2015-Mar-03 01:24N 22°31' E 120°17'0 0.1
2015-Mar-03 00:30N 22°31' E 120°17'0 0.0
2015-Mar-02 23:30N 22°31' E 120°17'0 0.1
2015-Mar-02 22:30N 22°31' E 120°17'0 0.0
2015-Mar-02 21:30N 22°31' E 120°17'0 0.0
2015-Mar-02 20:30N 22°31' E 120°17'0 0.0
2015-Mar-02 19:30N 22°31' E 120°17'0 0.1
2015-Mar-02 18:30N 22°31' E 120°17'0 0.0
2015-Mar-02 17:24N 22°31' E 120°17'0 0.0
2015-Mar-02 16:30N 22°31' E 120°17'0 0.1
2015-Mar-02 15:30N 22°31' E 120°17'0 0.0
2015-Mar-02 14:30N 22°31' E 120°17'0 0.1
2015-Mar-02 13:30N 22°32' E 120°17'0 0.1
2015-Mar-02 12:30N 22°31' E 120°17'0 0.1
2015-Mar-02 11:18N 22°31' E 120°17'0 0.0
2015-Mar-02 10:30N 22°31' E 120°17'0 0.0
2015-Mar-02 09:30N 22°31' E 120°17'0 0.0
2015-Mar-02 08:30N 22°31' E 120°17'0 0.0
2015-Mar-02 07:24N 22°31' E 120°17'0 0.0
2015-Mar-02 06:18N 22°31' E 120°17'0 0.0
2015-Mar-02 05:30N 22°31' E 120°17'0 0.0
2015-Mar-02 04:30N 22°31' E 120°17'0 0.0
2015-Mar-02 03:30N 22°31' E 120°17'0 0.0
2015-Mar-02 02:30N 22°31' E 120°17'0 0.1
2015-Mar-02 01:24N 22°31' E 120°17'0 0.0
2015-Mar-02 00:30N 22°31' E 120°17'0 0.0
2015-Mar-01 23:30N 22°31' E 120°17'0 0.0
2015-Mar-01 22:30N 22°31' E 120°17'0 0.0
2015-Mar-01 21:30N 22°31' E 120°17'0 0.1
2015-Mar-01 20:30N 22°31' E 120°17'0 0.0
2015-Mar-01 19:30N 22°31' E 120°17'0 0.0
2015-Mar-01 18:24N 22°31' E 120°17'0 0.0
2015-Mar-01 17:30N 22°31' E 120°17'0 0.0
2015-Mar-01 16:30N 22°31' E 120°17'0 0.0
2015-Mar-01 15:30N 22°31' E 120°17'0 0.0
2015-Mar-01 14:30N 22°31' E 120°17'0 0.0
2015-Mar-01 13:30N 22°31' E 120°17'0 0.0
2015-Mar-01 12:30N 22°31' E 120°17'0 0.0
2015-Mar-01 11:24N 22°31' E 120°17'0 0.0
2015-Mar-01 10:30N 22°31' E 120°17'0 0.0
2015-Mar-01 09:30N 22°31' E 120°17'0 0.0
2015-Mar-01 08:30N 22°31' E 120°17'0 0.0
2015-Mar-01 07:30N 22°31' E 120°17'0 0.0
2015-Mar-01 06:30N 22°31' E 120°17'0 0.0
2015-Mar-01 05:30N 22°31' E 120°17'0 0.0
2015-Mar-01 04:06N 22°31' E 120°17'0 0.0
2015-Mar-01 03:30N 22°31' E 120°17'0 0.0
2015-Mar-01 02:30N 22°31' E 120°17'0 0.1
2015-Mar-01 01:30N 22°31' E 120°17'0 0.0
2015-Mar-01 00:30N 22°31' E 120°17'0 0.0
2015-Feb-28 23:30N 22°31' E 120°17'0 0.0
2015-Feb-28 22:30N 22°31' E 120°17'0 0.0
2015-Feb-28 21:30N 22°31' E 120°17'0 0.0
2015-Feb-28 20:30N 22°31' E 120°17'0 0.0
2015-Feb-28 19:30N 22°31' E 120°17'0 0.1
2015-Feb-28 18:30N 22°31' E 120°17'0 0.1
2015-Feb-28 17:30N 22°31' E 120°17'0 0.0
2015-Feb-28 16:30N 22°31' E 120°17'0 0.0
2015-Feb-28 15:30N 22°31' E 120°17'0 0.0
2015-Feb-28 14:30N 22°31' E 120°17'0 0.0
2015-Feb-28 13:30N 22°31' E 120°17'0 0.0
2015-Feb-28 12:30N 22°31' E 120°17'0 0.0
2015-Feb-28 11:30N 22°31' E 120°17'0 0.0
2015-Feb-28 10:30N 22°31' E 120°17'0 0.1
2015-Feb-28 09:24N 22°31' E 120°17'0 0.0
2015-Feb-28 08:24N 22°31' E 120°17'0 0.0
2015-Feb-28 07:30N 22°31' E 120°17'0 0.0
2015-Feb-28 06:30N 22°31' E 120°17'0 0.0
2015-Feb-28 05:24N 22°31' E 120°17'0 0.0
2015-Feb-28 04:30N 22°31' E 120°17'0 0.0
2015-Feb-28 03:30N 22°31' E 120°17'0 0.0
2015-Feb-28 02:30N 22°31' E 120°17'0 0.0
2015-Feb-28 01:30N 22°31' E 120°17'0 0.0
2015-Feb-28 00:24N 22°31' E 120°17'0 0.4
2015-Feb-27 23:33N 22°31' E 120°17'8 8.3
2015-Feb-27 22:33N 22°27' E 120°10'1212.0
2015-Feb-27 21:33N 22°18' E 120°02'1212.1
2015-Feb-27 20:33N 22°08' E 119°55'  
Track history (hours):
 
Tides and Currents Weather Stations Pressure Air Temp Water Temp Dewpoint Dewpoint Depression Visibility Wind Speed Wind Dir Waves Ship Positions

Brevik Bridge

Last reported at 2015-Mar-06 10:20 UTC. Time now 2015-Mar-06 11:08 UTC.
Position N 24°26' E 118°03'.

Length 268 m; draft 10.1 m.

Type: Cargo ship. MMSI: 477866200.

Date/timePositionNaut miles runAvg speedWind from/ knotsBaromVisibWave heightAir tempDewpointWater temp
2015-Mar-06 10:20N 24°26' E 118°03'911.0
2015-Mar-06 09:33N 24°20' E 118°11'1110.3
2015-Mar-06 08:29N 24°12' E 118°18'1110.9
2015-Mar-06 07:28N 24°02' E 118°24'9311.7
2015-Mar-05 23:33N 23°00' E 119°39'1312.2
2015-Mar-05 22:28N 22°54' E 119°52'1213.0
2015-Mar-05 21:33N 22°46' E 120°02'9 8.8
2015-Mar-05 20:33N 22°40' E 120°09'4 4.5
2015-Mar-05 19:33N 22°37' E 120°12'7 7.3
2015-Mar-05 18:32N 22°33' E 120°19'0 0.0
2015-Mar-05 17:32N 22°33' E 120°19'0 0.0
2015-Mar-05 16:32N 22°33' E 120°19'0 0.0
2015-Mar-05 15:32N 22°33' E 120°19'0 0.0
2015-Mar-05 14:32N 22°33' E 120°19'0 0.0
2015-Mar-05 13:32N 22°33' E 120°19'0 0.0
2015-Mar-05 12:32N 22°33' E 120°19'0 0.0
2015-Mar-05 11:32N 22°33' E 120°19'0 0.0
2015-Mar-05 10:32N 22°33' E 120°19'0 0.0
2015-Mar-05 09:32N 22°33' E 120°19'0 0.0
2015-Mar-05 08:32N 22°33' E 120°19'0 0.0
2015-Mar-05 07:32N 22°33' E 120°19'0 0.0
2015-Mar-05 06:32N 22°33' E 120°19'0 0.0
2015-Mar-05 05:32N 22°33' E 120°19'0 0.0
2015-Mar-05 04:32N 22°33' E 120°19'0 0.0
2015-Mar-05 03:32N 22°33' E 120°19'0 0.0
2015-Mar-05 02:32N 22°33' E 120°19'3 2.7
2015-Mar-05 01:33N 22°33' E 120°16'1 1.3
2015-Mar-05 00:33N 22°31' E 120°17'0 0.0
2015-Mar-04 23:30N 22°31' E 120°17'0 0.1
2015-Mar-04 22:30N 22°32' E 120°17'0 0.0
2015-Mar-04 21:24N 22°32' E 120°17'0 0.2
2015-Mar-04 20:30N 22°32' E 120°17'0 0.1
2015-Mar-04 19:30N 22°31' E 120°17'0 0.2
2015-Mar-04 18:30N 22°31' E 120°17'0 0.0
2015-Mar-04 17:30N 22°31' E 120°17'0 0.0
2015-Mar-04 16:30N 22°31' E 120°17'0 0.1
2015-Mar-04 15:30N 22°31' E 120°17'0 0.1
2015-Mar-04 14:30N 22°31' E 120°17'0 0.0
2015-Mar-04 13:30N 22°31' E 120°17'0 0.1
2015-Mar-04 12:30N 22°31' E 120°17'0 0.1
2015-Mar-04 11:30N 22°31' E 120°17'0 0.0
2015-Mar-04 10:24N 22°31' E 120°17'0 0.1
2015-Mar-04 09:30N 22°31' E 120°17'0 0.0
2015-Mar-04 08:30N 22°31' E 120°17'0 0.0
2015-Mar-04 07:24N 22°31' E 120°17'0 0.0
2015-Mar-04 06:30N 22°31' E 120°17'0 0.0
2015-Mar-04 05:30N 22°31' E 120°17'0 0.0
2015-Mar-04 04:18N 22°31' E 120°17'0 0.0
2015-Mar-04 03:30N 22°31' E 120°17'0 0.0
2015-Mar-04 02:30N 22°31' E 120°17'0 0.0
2015-Mar-04 01:30N 22°31' E 120°17'0 0.1
2015-Mar-04 00:30N 22°31' E 120°17'0 0.0
2015-Mar-03 23:30N 22°31' E 120°17'0 0.0
2015-Mar-03 22:24N 22°31' E 120°17'0 0.1
2015-Mar-03 21:30N 22°31' E 120°17'0 0.1
2015-Mar-03 20:30N 22°31' E 120°17'0 0.0
2015-Mar-03 19:30N 22°31' E 120°17'0 0.1
2015-Mar-03 18:30N 22°31' E 120°17'0 0.0
2015-Mar-03 17:30N 22°31' E 120°17'0 0.1
2015-Mar-03 16:30N 22°31' E 120°17'0 0.1
2015-Mar-03 15:24N 22°31' E 120°17'0 0.0
2015-Mar-03 14:30N 22°31' E 120°17'0 0.0
2015-Mar-03 13:18N 22°31' E 120°17'0 0.1
2015-Mar-03 12:30N 22°32' E 120°17'0 0.1
2015-Mar-03 11:24N 22°32' E 120°17'0 0.0
2015-Mar-03 10:30N 22°32' E 120°17'0 0.0
2015-Mar-03 09:30N 22°32' E 120°17'0 0.1
2015-Mar-03 08:18N 22°32' E 120°17'0 0.1
2015-Mar-03 07:30N 22°32' E 120°17'0 0.0
2015-Mar-03 06:24N 22°32' E 120°17'0 0.1
2015-Mar-03 05:30N 22°32' E 120°17'0 0.1
2015-Mar-03 04:12N 22°32' E 120°17'0 0.0
2015-Mar-03 03:24N 22°32' E 120°17'0 0.1
2015-Mar-03 02:30N 22°32' E 120°17'0 0.1
2015-Mar-03 01:24N 22°31' E 120°17'0 0.1
2015-Mar-03 00:30N 22°31' E 120°17'0 0.0
2015-Mar-02 23:30N 22°31' E 120°17'0 0.1
2015-Mar-02 22:30N 22°31' E 120°17'0 0.0
2015-Mar-02 21:30N 22°31' E 120°17'0 0.0
2015-Mar-02 20:30N 22°31' E 120°17'0 0.0
2015-Mar-02 19:30N 22°31' E 120°17'0 0.1
2015-Mar-02 18:30N 22°31' E 120°17'0 0.0
2015-Mar-02 17:24N 22°31' E 120°17'0 0.0
2015-Mar-02 16:30N 22°31' E 120°17'0 0.1
2015-Mar-02 15:30N 22°31' E 120°17'0 0.0
2015-Mar-02 14:30N 22°31' E 120°17'0 0.1
2015-Mar-02 13:30N 22°32' E 120°17'0 0.1
2015-Mar-02 12:30N 22°31' E 120°17'0 0.1
2015-Mar-02 11:18N 22°31' E 120°17'0 0.0
2015-Mar-02 10:30N 22°31' E 120°17'0 0.0
2015-Mar-02 09:30N 22°31' E 120°17'0 0.0
2015-Mar-02 08:30N 22°31' E 120°17'0 0.0
2015-Mar-02 07:24N 22°31' E 120°17'0 0.0
2015-Mar-02 06:18N 22°31' E 120°17'0 0.0
2015-Mar-02 05:30N 22°31' E 120°17'0 0.0
2015-Mar-02 04:30N 22°31' E 120°17'0 0.0
2015-Mar-02 03:30N 22°31' E 120°17'0 0.0
2015-Mar-02 02:30N 22°31' E 120°17'0 0.1
2015-Mar-02 01:24N 22°31' E 120°17'0 0.0
2015-Mar-02 00:30N 22°31' E 120°17'0 0.0
2015-Mar-01 23:30N 22°31' E 120°17'0 0.0
2015-Mar-01 22:30N 22°31' E 120°17'0 0.0
2015-Mar-01 21:30N 22°31' E 120°17'0 0.1
2015-Mar-01 20:30N 22°31' E 120°17'0 0.0
2015-Mar-01 19:30N 22°31' E 120°17'0 0.0
2015-Mar-01 18:24N 22°31' E 120°17'0 0.0
2015-Mar-01 17:30N 22°31' E 120°17'0 0.0
2015-Mar-01 16:30N 22°31' E 120°17'0 0.0
2015-Mar-01 15:30N 22°31' E 120°17'0 0.0
2015-Mar-01 14:30N 22°31' E 120°17'0 0.0
2015-Mar-01 13:30N 22°31' E 120°17'0 0.0
2015-Mar-01 12:30N 22°31' E 120°17'0 0.0
2015-Mar-01 11:24N 22°31' E 120°17'0 0.0
2015-Mar-01 10:30N 22°31' E 120°17'0 0.0
2015-Mar-01 09:30N 22°31' E 120°17'0 0.0
2015-Mar-01 08:30N 22°31' E 120°17'0 0.0
2015-Mar-01 07:30N 22°31' E 120°17'0 0.0
2015-Mar-01 06:30N 22°31' E 120°17'0 0.0
2015-Mar-01 05:30N 22°31' E 120°17'0 0.0
2015-Mar-01 04:06N 22°31' E 120°17'0 0.0
2015-Mar-01 03:30N 22°31' E 120°17'0 0.0
2015-Mar-01 02:30N 22°31' E 120°17'0 0.1
2015-Mar-01 01:30N 22°31' E 120°17'0 0.0
2015-Mar-01 00:30N 22°31' E 120°17'0 0.0
2015-Feb-28 23:30N 22°31' E 120°17'0 0.0
2015-Feb-28 22:30N 22°31' E 120°17'0 0.0
2015-Feb-28 21:30N 22°31' E 120°17'0 0.0
2015-Feb-28 20:30N 22°31' E 120°17'0 0.0
2015-Feb-28 19:30N 22°31' E 120°17'0 0.1
2015-Feb-28 18:30N 22°31' E 120°17'0 0.1
2015-Feb-28 17:30N 22°31' E 120°17'0 0.0
2015-Feb-28 16:30N 22°31' E 120°17'0 0.0
2015-Feb-28 15:30N 22°31' E 120°17'0 0.0
2015-Feb-28 14:30N 22°31' E 120°17'0 0.0
2015-Feb-28 13:30N 22°31' E 120°17'0 0.0
2015-Feb-28 12:30N 22°31' E 120°17'0 0.0
2015-Feb-28 11:30N 22°31' E 120°17'0 0.0
2015-Feb-28 10:30N 22°31' E 120°17'0 0.1
2015-Feb-28 09:24N 22°31' E 120°17'0 0.0
2015-Feb-28 08:24N 22°31' E 120°17'0 0.0
2015-Feb-28 07:30N 22°31' E 120°17'0 0.0
2015-Feb-28 06:30N 22°31' E 120°17'0 0.0
2015-Feb-28 05:24N 22°31' E 120°17'0 0.0
2015-Feb-28 04:30N 22°31' E 120°17'0 0.0
2015-Feb-28 03:30N 22°31' E 120°17'0 0.0
2015-Feb-28 02:30N 22°31' E 120°17'0 0.0
2015-Feb-28 01:30N 22°31' E 120°17'0 0.0
2015-Feb-28 00:24N 22°31' E 120°17'0 0.4
2015-Feb-27 23:33N 22°31' E 120°17'8 8.3
2015-Feb-27 22:33N 22°27' E 120°10'1212.0
2015-Feb-27 21:33N 22°18' E 120°02'1212.1
2015-Feb-27 20:33N 22°08' E 119°55'  

Dump ship's entire track history